Time;durP1;ratioP1;P1;durP2;ratioP2;P2;SDS_P1;SDS_P2;PMS_P1;PMS_P2;Temp;Humidity;BMP_temperature;BMP_pressure;BME280_temperature;BME280_humidity;BME280_pressure;Samples;Min_cycle;Max_cycle;Signal;HPM_P1;HPM_P2
2023/08/12 00:00:13;;;;;;;49.53;31.67;;;18.90;99.90;;;;;;5035393;28;20032;-65
2023/08/12 00:02:42;;;;;;;49.78;30.92;;;18.90;99.90;;;;;;5036379;28;20102;-65
2023/08/12 00:05:10;;;;;;;46.63;32.20;;;19.00;99.90;;;;;;5015658;28;20769;-65
2023/08/12 00:07:40;;;;;;;43.30;29.25;;;18.90;99.90;;;;;;5036762;28;20493;-65
2023/08/12 00:10:07;;;;;;;51.05;31.55;;;18.60;99.90;;;;;;5005278;28;20288;-66
2023/08/12 00:12:34;;;;;;;52.70;33.13;;;18.70;99.90;;;;;;5033266;28;20369;-65
2023/08/12 00:15:00;;;;;;;54.78;30.40;;;18.70;99.90;;;;;;5038060;28;20445;-65
2023/08/12 00:17:25;;;;;;;50.53;32.33;;;18.50;99.90;;;;;;5033409;28;20029;-65
2023/08/12 00:19:51;;;;;;;47.88;30.13;;;18.50;99.90;;;;;;5033055;28;20280;-66
2023/08/12 00:22:17;;;;;;;50.83;33.83;;;18.60;99.90;;;;;;5035098;28;20068;-65
2023/08/12 00:24:43;;;;;;;49.83;31.45;;;18.80;99.90;;;;;;5033043;28;20045;-65
2023/08/12 00:27:09;;;;;;;45.72;29.15;;;18.50;99.90;;;;;;5036430;28;20122;-66
2023/08/12 00:29:35;;;;;;;47.13;29.23;;;18.70;99.90;;;;;;5036358;28;20717;-65
2023/08/12 00:32:01;;;;;;;46.35;29.48;;;18.50;99.90;;;;;;5038774;28;20546;-66
2023/08/12 00:34:27;;;;;;;54.95;31.42;;;18.80;99.90;;;;;;5032808;28;20055;-66
2023/08/12 00:36:52;;;;;;;49.47;29.65;;;18.50;99.90;;;;;;5034016;28;20453;-66
2023/08/12 00:39:18;;;;;;;49.40;32.50;;;18.50;99.90;;;;;;5018488;28;20079;-66
2023/08/12 00:41:44;;;;;;;46.35;30.17;;;18.50;99.90;;;;;;5016199;28;20417;-66
2023/08/12 00:44:10;;;;;;;43.60;29.60;;;18.70;99.90;;;;;;5040832;28;20053;-66
2023/08/12 00:46:37;;;;;;;48.78;30.42;;;18.70;99.90;;;;;;5018078;28;20233;-64
2023/08/12 00:49:04;;;;;;;46.50;30.23;;;18.60;99.90;;;;;;5037396;28;20048;-66
2023/08/12 00:51:30;;;;;;;37.33;26.80;;;18.60;99.90;;;;;;5016254;28;20272;-65
2023/08/12 00:53:58;;;;;;;38.70;27.15;;;18.30;99.90;;;;;;5034959;28;20029;-65
2023/08/12 00:56:25;;;;;;;36.60;26.65;;;18.70;99.90;;;;;;5037314;28;20040;-65
2023/08/12 00:58:52;;;;;;;41.15;27.15;;;18.40;99.90;;;;;;5042713;28;20123;-66
2023/08/12 01:01:18;;;;;;;37.97;24.77;;;18.40;99.90;;;;;;5038474;28;20474;-65
2023/08/12 01:03:44;;;;;;;38.05;25.15;;;18.50;99.90;;;;;;5016460;28;20481;-65
2023/08/12 01:06:10;;;;;;;30.13;23.48;;;18.70;99.90;;;;;;5016731;28;20049;-66
2023/08/12 01:08:36;;;;;;;37.70;25.05;;;18.50;99.90;;;;;;5017283;28;20036;-67
2023/08/12 01:11:40;;;;;;;32.55;21.92;;;18.30;99.90;;;;;;5014295;28;20037;-66
2023/08/12 01:14:16;;;;;;;31.80;20.83;;;18.60;99.90;;;;;;5038216;28;20664;-66
2023/08/12 01:16:51;;;;;;;27.60;19.30;;;18.60;99.90;;;;;;5037145;28;20047;-66
2023/08/12 01:19:33;;;;;;;24.48;16.80;;;18.60;99.90;;;;;;5035667;28;20847;-66
2023/08/12 01:22:03;;;;;;;22.00;16.58;;;18.40;99.90;;;;;;5018033;28;20045;-66
2023/08/12 01:24:37;;;;;;;22.27;15.35;;;18.30;99.90;;;;;;5031061;28;20041;-65
2023/08/12 01:27:03;;;;;;;25.83;16.27;;;18.30;99.90;;;;;;5045601;28;20055;-66
2023/08/12 01:29:29;;;;;;;23.15;14.35;;;18.60;99.90;;;;;;5016591;28;20606;-66
2023/08/12 01:32:09;;;;;;;20.08;14.27;;;18.70;99.90;;;;;;5035754;28;20556;-66
2023/08/12 01:34:46;;;;;;;17.83;11.98;;;18.50;99.90;;;;;;5036493;28;20179;-66
2023/08/12 01:37:17;;;;;;;19.20;12.15;;;18.30;99.90;;;;;;5041310;28;20033;-65
2023/08/12 01:39:45;;;;;;;17.15;10.98;;;18.30;99.90;;;;;;5031810;28;20782;-65
2023/08/12 01:42:11;;;;;;;17.27;10.18;;;18.50;99.90;;;;;;5035795;28;20047;-65
2023/08/12 01:44:37;;;;;;;15.77;10.40;;;18.20;99.90;;;;;;5034393;28;20454;-67
2023/08/12 01:47:03;;;;;;;14.68;9.35;;;18.50;99.90;;;;;;5015299;28;20223;-65
2023/08/12 01:49:29;;;;;;;15.10;9.38;;;18.50;99.90;;;;;;5031612;28;20331;-66
2023/08/12 01:51:54;;;;;;;13.55;8.82;;;18.30;99.90;;;;;;5035568;28;20041;-66
2023/08/12 01:54:20;;;;;;;14.75;8.48;;;18.60;99.90;;;;;;5037885;28;20702;-67
2023/08/12 01:56:46;;;;;;;14.70;8.55;;;18.30;99.90;;;;;;5038626;28;20148;-66
2023/08/12 01:59:11;;;;;;;12.15;8.23;;;18.20;99.90;;;;;;5015884;28;20591;-64
2023/08/12 02:01:37;;;;;;;14.00;8.73;;;18.40;99.90;;;;;;5038545;28;20040;-65
2023/08/12 02:04:03;;;;;;;13.00;7.93;;;18.50;99.90;;;;;;5030657;28;20068;-65
2023/08/12 02:06:28;;;;;;;10.95;7.68;;;18.20;99.90;;;;;;5032147;28;20407;-65
2023/08/12 02:08:54;;;;;;;12.73;7.55;;;18.50;99.90;;;;;;5033487;28;20544;-65
2023/08/12 02:11:20;;;;;;;10.98;7.55;;;18.40;99.90;;;;;;5018237;28;20394;-65
2023/08/12 02:13:46;;;;;;;13.35;7.57;;;18.00;99.90;;;;;;5020784;28;20055;-65
2023/08/12 02:16:12;;;;;;;13.40;7.78;;;18.00;99.90;;;;;;5022611;28;20794;-66
2023/08/12 02:18:38;;;;;;;10.30;7.28;;;18.00;99.90;;;;;;5030335;28;20063;-66
2023/08/12 02:21:03;;;;;;;13.02;7.95;;;18.10;99.90;;;;;;5022064;28;20208;-66
2023/08/12 02:23:29;;;;;;;15.15;7.07;;;18.10;99.90;;;;;;5031047;28;20283;-65
2023/08/12 02:25:55;;;;;;;12.07;7.05;;;18.00;99.90;;;;;;5037109;28;20385;-65
2023/08/12 02:28:20;;;;;;;8.68;6.65;;;18.10;99.90;;;;;;5032869;28;20053;-66
2023/08/12 02:30:46;;;;;;;10.43;6.60;;;18.10;99.90;;;;;;5036589;28;20102;-65
2023/08/12 02:33:12;;;;;;;11.63;6.88;;;18.00;99.90;;;;;;5035151;28;20052;-66
2023/08/12 02:35:38;;;;;;;13.05;6.47;;;18.20;99.90;;;;;;5037140;28;20102;-65
2023/08/12 02:38:04;;;;;;;12.57;6.85;;;18.20;99.90;;;;;;5024343;28;20542;-66
2023/08/12 02:40:29;;;;;;;13.15;7.20;;;18.20;99.90;;;;;;5032951;28;20049;-65
2023/08/12 02:42:55;;;;;;;11.55;6.90;;;18.20;99.90;;;;;;5019953;28;20057;-66
2023/08/12 02:45:20;;;;;;;13.60;7.20;;;18.10;99.90;;;;;;5034414;28;20410;-66
2023/08/12 02:47:46;;;;;;;12.73;6.85;;;18.20;99.90;;;;;;5017791;28;20086;-65
2023/08/12 02:50:13;;;;;;;13.98;8.40;;;17.80;99.90;;;;;;5028779;28;20052;-66
2023/08/12 02:52:39;;;;;;;12.68;7.13;;;18.10;99.90;;;;;;5040396;28;20032;-65
2023/08/12 02:55:05;;;;;;;12.95;7.38;;;18.00;99.90;;;;;;5034332;28;20407;-66
2023/08/12 02:57:31;;;;;;;13.10;7.25;;;18.20;99.90;;;;;;5033475;28;20048;-66
2023/08/12 02:59:57;;;;;;;11.98;7.22;;;17.80;99.90;;;;;;5036105;28;20036;-66
2023/08/12 03:02:22;;;;;;;14.32;8.07;;;18.10;99.90;;;;;;5034585;28;20312;-66
2023/08/12 03:04:48;;;;;;;12.27;7.38;;;18.20;99.90;;;;;;5040132;28;20215;-66
2023/08/12 03:07:14;;;;;;;16.45;8.50;;;18.20;99.90;;;;;;5018794;28;20143;-66
2023/08/12 03:09:39;;;;;;;13.60;8.30;;;17.80;99.90;;;;;;5035193;28;20036;-66
2023/08/12 03:12:05;;;;;;;14.25;7.60;;;18.20;99.90;;;;;;5035771;28;20043;-65
2023/08/12 03:14:31;;;;;;;11.43;6.90;;;18.10;99.90;;;;;;5037227;28;20612;-65
2023/08/12 03:16:57;;;;;;;12.57;8.40;;;18.00;99.90;;;;;;5030682;28;20086;-64
2023/08/12 03:19:22;;;;;;;16.35;8.85;;;17.80;99.90;;;;;;5040265;28;20052;-65
2023/08/12 03:21:48;;;;;;;13.60;8.35;;;18.30;99.90;;;;;;5036101;28;20049;-66
2023/08/12 03:24:14;;;;;;;14.90;8.43;;;18.20;99.90;;;;;;5033944;28;20485;-66
2023/08/12 03:26:39;;;;;;;16.95;8.35;;;18.00;99.90;;;;;;5020232;28;20079;-65
2023/08/12 03:29:05;;;;;;;15.57;9.07;;;17.90;99.90;;;;;;5018156;28;20048;-66
2023/08/12 03:31:31;;;;;;;13.82;9.05;;;17.90;99.90;;;;;;5043172;28;20045;-66
2023/08/12 03:33:56;;;;;;;13.52;8.68;;;18.30;99.90;;;;;;5038731;28;20569;-66
2023/08/12 03:36:22;;;;;;;15.55;9.43;;;18.00;99.90;;;;;;5036944;28;20045;-64
2023/08/12 03:38:47;;;;;;;14.43;9.50;;;18.40;99.90;;;;;;5038650;28;20319;-66
2023/08/12 03:41:13;;;;;;;16.92;9.80;;;17.90;99.90;;;;;;5040255;28;20045;-65
2023/08/12 03:43:40;;;;;;;16.92;10.10;;;18.00;99.90;;;;;;5023651;28;20040;-66
2023/08/12 03:46:05;;;;;;;14.85;10.40;;;18.30;99.90;;;;;;5036066;28;20052;-66
2023/08/12 03:48:31;;;;;;;16.90;10.95;;;18.20;99.90;;;;;;5028008;28;20037;-66
2023/08/12 03:50:57;;;;;;;16.23;11.00;;;18.30;99.90;;;;;;5038712;28;20048;-65
2023/08/12 03:53:23;;;;;;;16.23;10.63;;;17.90;99.90;;;;;;5033713;28;20051;-65
2023/08/12 03:55:48;;;;;;;16.20;10.45;;;18.20;99.90;;;;;;5006448;28;20514;-65
2023/08/12 03:58:14;;;;;;;14.80;10.82;;;18.00;99.90;;;;;;5023741;28;20071;-65
2023/08/12 04:00:43;;;;;;;21.08;11.90;;;18.10;99.90;;;;;;5027082;28;20044;-64
2023/08/12 04:03:09;;;;;;;19.15;12.15;;;18.20;99.90;;;;;;5038143;28;20051;-65
2023/08/12 04:05:34;;;;;;;16.30;11.20;;;18.00;99.90;;;;;;5041911;28;20427;-65
2023/08/12 04:08:00;;;;;;;18.52;12.27;;;18.20;99.90;;;;;;5037650;28;20358;-65
2023/08/12 04:10:26;;;;;;;19.50;12.48;;;18.10;99.90;;;;;;5024671;28;20513;-65
2023/08/12 04:12:51;;;;;;;21.85;12.65;;;18.20;99.90;;;;;;5034584;28;20202;-65
2023/08/12 04:15:17;;;;;;;17.05;11.60;;;18.60;99.90;;;;;;5027380;28;20123;-65
2023/08/12 04:17:43;;;;;;;20.30;12.52;;;18.20;99.90;;;;;;5036862;28;20075;-65
2023/08/12 04:20:09;;;;;;;20.95;13.32;;;18.30;99.90;;;;;;5037198;28;20270;-66
2023/08/12 04:22:35;;;;;;;18.98;12.45;;;18.50;99.90;;;;;;5023484;28;20077;-66
2023/08/12 04:25:02;;;;;;;18.48;13.07;;;18.20;99.90;;;;;;5015012;28;20136;-66
2023/08/12 04:27:27;;;;;;;22.42;13.05;;;18.40;99.90;;;;;;5019497;28;20063;-65
2023/08/12 04:29:53;;;;;;;22.85;13.27;;;18.10;99.90;;;;;;5036839;28;20224;-67
2023/08/12 04:32:19;;;;;;;20.42;14.02;;;18.50;99.90;;;;;;5036182;28;20932;-66
2023/08/12 04:34:45;;;;;;;18.77;13.38;;;18.20;99.90;;;;;;5037068;28;20041;-66
2023/08/12 04:37:11;;;;;;;24.42;14.45;;;18.00;99.90;;;;;;5023041;28;20130;-64
2023/08/12 04:39:37;;;;;;;24.17;14.63;;;18.50;99.90;;;;;;5037882;28;20680;-65
2023/08/12 04:42:02;;;;;;;20.38;13.60;;;18.00;99.90;;;;;;5018877;28;20048;-65
2023/08/12 04:44:28;;;;;;;24.00;14.23;;;18.30;99.90;;;;;;5038190;28;20658;-64
2023/08/12 04:46:54;;;;;;;22.35;14.00;;;18.40;99.90;;;;;;5036304;28;20036;-66
2023/08/12 04:49:20;;;;;;;22.67;14.00;;;18.10;99.90;;;;;;5020347;28;20075;-65
2023/08/12 04:51:46;;;;;;;22.70;14.38;;;18.00;99.90;;;;;;5035427;28;20040;-66
2023/08/12 04:54:11;;;;;;;21.45;14.05;;;18.10;99.90;;;;;;5023426;28;20052;-66
2023/08/12 04:56:37;;;;;;;19.77;13.93;;;18.40;99.90;;;;;;5041011;28;20048;-66
2023/08/12 04:59:03;;;;;;;20.08;14.32;;;18.60;99.90;;;;;;5040991;28;20689;-66
2023/08/12 05:01:29;;;;;;;20.63;13.82;;;18.60;99.90;;;;;;5036958;28;20032;-65
2023/08/12 05:03:54;;;;;;;18.90;13.23;;;18.40;99.90;;;;;;5015711;28;20052;-67
2023/08/12 05:06:20;;;;;;;19.52;13.70;;;18.50;99.90;;;;;;5035325;28;20083;-66
2023/08/12 05:08:46;;;;;;;23.70;14.18;;;18.30;99.90;;;;;;5018873;28;20101;-66
2023/08/12 05:11:11;;;;;;;24.73;13.52;;;18.30;99.90;;;;;;5019767;28;20040;-66
2023/08/12 05:13:37;;;;;;;29.02;14.80;;;18.50;99.90;;;;;;5024241;28;20668;-66
2023/08/12 05:16:03;;;;;;;25.65;13.95;;;18.70;99.90;;;;;;5039824;28;20041;-65
2023/08/12 05:18:29;;;;;;;24.77;14.95;;;18.70;99.90;;;;;;5031789;28;20122;-65
2023/08/12 05:20:55;;;;;;;22.77;14.50;;;18.60;99.90;;;;;;5038360;28;20373;-66
2023/08/12 05:23:21;;;;;;;22.73;14.52;;;18.90;99.90;;;;;;5003312;28;20490;-66
2023/08/12 05:25:47;;;;;;;24.33;14.80;;;18.50;99.90;;;;;;5022769;28;20043;-65
2023/08/12 05:28:12;;;;;;;23.40;14.85;;;18.50;99.90;;;;;;5001426;28;20040;-65
2023/08/12 05:30:38;;;;;;;22.60;15.45;;;19.00;99.90;;;;;;5037551;28;20514;-66
2023/08/12 05:33:04;;;;;;;27.15;15.38;;;19.00;99.90;;;;;;5035023;28;20114;-65
2023/08/12 05:35:34;;;;;;;21.63;14.88;;;18.60;99.90;;;;;;5033053;28;20036;-65
2023/08/12 05:38:00;;;;;;;25.85;14.57;;;19.00;99.90;;;;;;5037375;28;20128;-65
2023/08/12 05:40:27;;;;;;;25.40;15.50;;;19.00;99.90;;;;;;5032345;28;20033;-65
2023/08/12 05:42:53;;;;;;;22.17;14.68;;;18.70;99.90;;;;;;5036107;28;20044;-65
2023/08/12 05:45:18;;;;;;;20.83;14.32;;;19.20;99.90;;;;;;5019415;28;20044;-65
2023/08/12 05:47:44;;;;;;;22.77;14.45;;;19.20;99.90;;;;;;5017576;28;20036;-64
2023/08/12 05:50:10;;;;;;;26.00;15.10;;;19.30;99.90;;;;;;5037047;28;20520;-65
2023/08/12 05:52:36;;;;;;;21.75;14.00;;;19.40;99.90;;;;;;5018217;28;20039;-64
2023/08/12 05:55:01;;;;;;;20.20;14.63;;;19.50;99.90;;;;;;5036429;28;20036;-66
2023/08/12 05:57:27;;;;;;;18.73;13.52;;;19.50;99.90;;;;;;5037006;28;20535;-66
2023/08/12 05:59:53;;;;;;;20.95;13.27;;;19.80;99.90;;;;;;5022417;28;20549;-65
2023/08/12 06:02:19;;;;;;;18.08;12.60;;;19.70;99.90;;;;;;5028198;28;20123;-64
2023/08/12 06:04:44;;;;;;;18.80;12.57;;;20.20;99.90;;;;;;5011965;28;20509;-65
2023/08/12 06:07:10;;;;;;;18.67;11.65;;;20.20;99.90;;;;;;5014636;28;20073;-65
2023/08/12 06:09:36;;;;;;;16.67;12.02;;;20.00;99.90;;;;;;5039995;28;20434;-65
2023/08/12 06:12:02;;;;;;;16.08;12.95;;;20.30;99.90;;;;;;5034907;28;20044;-65
2023/08/12 06:14:28;;;;;;;18.10;12.07;;;20.30;99.90;;;;;;5032366;28;20040;-65
2023/08/12 06:16:54;;;;;;;16.08;11.38;;;20.40;99.90;;;;;;5035172;28;20150;-66
2023/08/12 06:19:19;;;;;;;15.40;10.95;;;20.00;99.90;;;;;;5034449;28;20143;-65
2023/08/12 06:21:46;;;;;;;17.65;11.13;;;20.10;99.90;;;;;;5021752;28;20040;-65
2023/08/12 06:24:12;;;;;;;15.30;10.40;;;20.40;99.90;;;;;;5015125;28;20138;-66
2023/08/12 06:26:37;;;;;;;15.77;9.77;;;20.50;99.90;;;;;;5035113;28;20635;-66
2023/08/12 06:29:03;;;;;;;18.13;10.38;;;20.50;99.90;;;;;;5036058;28;20071;-65
2023/08/12 06:31:29;;;;;;;12.90;9.23;;;20.30;99.90;;;;;;5037085;28;20048;-66
2023/08/12 06:33:54;;;;;;;11.82;9.25;;;20.60;99.90;;;;;;5026527;28;20521;-65
2023/08/12 06:36:21;;;;;;;18.80;9.70;;;20.80;99.90;;;;;;5025779;28;20402;-66
2023/08/12 06:38:47;;;;;;;11.77;8.85;;;20.70;99.90;;;;;;4997728;28;20048;-64
2023/08/12 06:41:13;;;;;;;14.02;8.30;;;20.70;99.90;;;;;;5011553;28;20056;-65
2023/08/12 06:43:39;;;;;;;10.02;7.40;;;20.80;99.90;;;;;;5016776;28;20240;-66
2023/08/12 06:46:05;;;;;;;9.88;7.45;;;21.00;99.90;;;;;;5013716;28;20045;-66
2023/08/12 06:48:31;;;;;;;10.73;7.20;;;20.90;99.90;;;;;;5014464;28;20052;-65
2023/08/12 06:50:57;;;;;;;13.90;7.75;;;20.90;99.90;;;;;;5014618;28;20577;-65
2023/08/12 06:53:25;;;;;;;8.15;6.78;;;20.90;99.90;;;;;;5016476;28;20465;-66
2023/08/12 06:55:51;;;;;;;12.52;7.40;;;20.90;99.90;;;;;;5015581;28;20045;-66
2023/08/12 06:58:17;;;;;;;10.90;7.03;;;21.10;99.90;;;;;;5020701;28;20268;-66
2023/08/12 07:00:43;;;;;;;11.52;8.25;;;21.10;99.90;;;;;;5035339;28;20407;-66
2023/08/12 07:03:09;;;;;;;11.23;8.35;;;21.00;99.90;;;;;;5040687;28;20095;-66
2023/08/12 07:05:34;;;;;;;12.48;8.38;;;21.10;99.90;;;;;;5025199;28;20436;-65
2023/08/12 07:08:00;;;;;;;11.52;8.43;;;21.00;99.90;;;;;;4999168;28;20037;-65
2023/08/12 07:10:26;;;;;;;12.65;8.48;;;21.00;99.90;;;;;;5037385;28;20096;-65
2023/08/12 07:12:56;;;;;;;14.00;9.35;;;21.00;99.90;;;;;;5025116;28;20044;-65
2023/08/12 07:15:22;;;;;;;14.20;8.70;;;21.10;99.90;;;;;;5038159;28;20389;-65
2023/08/12 07:17:48;;;;;;;11.82;8.68;;;21.00;99.90;;;;;;5023112;28;20037;-65
2023/08/12 07:20:14;;;;;;;13.25;9.55;;;20.90;99.90;;;;;;5026004;28;20053;-66
2023/08/12 07:22:39;;;;;;;15.60;10.10;;;21.00;99.90;;;;;;5023429;28;20370;-65
2023/08/12 07:25:05;;;;;;;17.88;9.80;;;20.80;99.90;;;;;;5024067;28;20097;-65
2023/08/12 07:27:31;;;;;;;15.77;10.48;;;20.70;99.90;;;;;;5028659;28;20426;-66
2023/08/12 07:29:57;;;;;;;15.63;11.27;;;20.70;99.90;;;;;;5026503;28;20045;-66
2023/08/12 07:32:22;;;;;;;17.58;11.35;;;20.60;99.90;;;;;;5024128;28;20045;-65
2023/08/12 07:34:48;;;;;;;18.98;11.20;;;20.70;99.90;;;;;;5041327;28;20033;-66
2023/08/12 07:37:14;;;;;;;15.27;11.40;;;20.60;99.90;;;;;;5020307;28;20083;-65
2023/08/12 07:39:40;;;;;;;18.10;11.27;;;20.50;99.90;;;;;;5035924;28;20045;-65
2023/08/12 07:42:06;;;;;;;18.25;11.90;;;20.30;99.90;;;;;;5038979;28;20584;-65
2023/08/12 07:44:32;;;;;;;15.10;11.57;;;20.50;99.90;;;;;;5035052;28;20044;-65
2023/08/12 07:46:57;;;;;;;18.15;12.68;;;20.20;99.90;;;;;;5016957;28;20049;-65
2023/08/12 07:49:23;;;;;;;18.67;13.98;;;20.40;99.90;;;;;;5032870;28;20045;-65
2023/08/12 07:51:49;;;;;;;19.13;13.90;;;20.30;99.90;;;;;;5032883;28;20328;-65
2023/08/12 07:54:15;;;;;;;20.00;12.73;;;20.30;99.90;;;;;;5016843;28;20416;-65
2023/08/12 07:56:42;;;;;;;18.85;13.70;;;20.40;99.90;;;;;;5033772;28;20152;-65
2023/08/12 07:59:08;;;;;;;19.75;14.15;;;20.20;99.90;;;;;;5052363;28;20131;-65
2023/08/12 08:01:34;;;;;;;18.88;14.75;;;20.30;99.90;;;;;;5051885;28;20287;-65
2023/08/12 08:04:00;;;;;;;19.45;13.90;;;20.60;99.90;;;;;;5035328;28;20063;-65
2023/08/12 08:06:25;;;;;;;15.23;13.63;;;20.50;99.90;;;;;;5035126;28;20049;-66
2023/08/12 08:08:51;;;;;;;19.77;14.20;;;20.60;99.90;;;;;;5035670;28;20039;-66
2023/08/12 08:11:17;;;;;;;18.60;14.10;;;20.70;99.90;;;;;;5051791;28;20070;-66
2023/08/12 08:13:42;;;;;;;16.90;13.35;;;21.00;99.90;;;;;;5052295;28;20106;-67
2023/08/12 08:16:08;;;;;;;18.05;14.38;;;20.90;99.90;;;;;;5053296;28;20330;-66
2023/08/12 08:18:34;;;;;;;20.20;15.05;;;21.10;99.90;;;;;;5051937;28;20511;-66
2023/08/12 08:21:00;;;;;;;18.00;14.25;;;20.90;99.90;;;;;;5051743;28;20075;-66
2023/08/12 08:23:26;;;;;;;17.67;14.32;;;21.10;99.90;;;;;;5035079;28;20326;-67
2023/08/12 08:25:52;;;;;;;20.08;15.10;;;21.00;99.90;;;;;;5052015;28;20044;-66
2023/08/12 08:28:17;;;;;;;20.45;15.00;;;21.20;99.90;;;;;;5019164;28;20406;-65
2023/08/12 08:30:43;;;;;;;19.27;14.07;;;21.10;99.90;;;;;;5052014;28;20048;-66
2023/08/12 08:33:09;;;;;;;19.92;14.98;;;21.30;99.90;;;;;;5051578;28;20123;-66
2023/08/12 08:35:34;;;;;;;19.60;14.30;;;21.30;99.90;;;;;;5034986;28;20408;-67
2023/08/12 08:38:00;;;;;;;22.52;16.10;;;21.60;99.90;;;;;;5051593;28;20040;-65
2023/08/12 08:40:26;;;;;;;17.27;13.75;;;21.40;99.90;;;;;;5051562;28;20363;-65
2023/08/12 08:42:53;;;;;;;20.73;15.00;;;21.60;99.90;;;;;;5049580;28;20047;-66
2023/08/12 08:45:21;;;;;;;21.90;14.75;;;21.60;99.90;;;;;;5032413;28;20063;-64
2023/08/12 08:47:47;;;;;;;22.60;14.30;;;21.70;99.90;;;;;;5032665;28;20687;-65
2023/08/12 08:50:14;;;;;;;17.55;15.45;;;21.70;99.90;;;;;;5033871;28;20048;-67
2023/08/12 08:52:41;;;;;;;22.85;16.20;;;21.90;99.90;;;;;;5016194;28;20732;-65
2023/08/12 08:55:07;;;;;;;21.15;15.65;;;21.70;99.90;;;;;;5016290;28;20032;-65
2023/08/12 08:57:33;;;;;;;21.52;16.08;;;21.90;99.90;;;;;;5034173;28;20619;-65
2023/08/12 08:59:59;;;;;;;21.40;15.07;;;21.90;99.90;;;;;;5032128;28;20041;-66
2023/08/12 09:02:26;;;;;;;18.73;14.93;;;21.80;99.90;;;;;;5015352;28;20906;-65
2023/08/12 09:04:52;;;;;;;19.55;15.98;;;21.90;99.90;;;;;;5035057;28;20107;-65
2023/08/12 09:07:20;;;;;;;20.30;15.20;;;21.90;99.90;;;;;;5034135;28;20048;-65
2023/08/12 09:09:48;;;;;;;19.70;15.60;;;21.80;99.90;;;;;;5052167;28;20323;-65
2023/08/12 09:12:16;;;;;;;19.20;14.73;;;21.80;99.90;;;;;;5051909;28;20227;-65
2023/08/12 09:14:43;;;;;;;18.13;16.23;;;21.90;99.90;;;;;;5051205;28;20036;-66
2023/08/12 09:17:09;;;;;;;19.67;15.65;;;21.60;99.90;;;;;;5051732;28;20040;-65
2023/08/12 09:19:35;;;;;;;19.45;15.45;;;21.60;99.90;;;;;;5050885;28;20317;-65
2023/08/12 09:22:03;;;;;;;20.90;15.38;;;21.60;99.90;;;;;;5051056;28;20418;-65
2023/08/12 09:24:29;;;;;;;18.20;15.25;;;21.60;99.90;;;;;;5050897;28;20113;-65
2023/08/12 09:26:55;;;;;;;19.75;16.15;;;21.50;99.90;;;;;;5050704;28;20057;-66
2023/08/12 09:29:32;;;;;;;20.83;16.90;;;21.50;99.90;;;;;;5051069;28;20654;-65
2023/08/12 09:32:18;;;;;;;18.85;16.38;;;21.40;99.90;;;;;;5037349;28;20235;-65
2023/08/12 09:34:48;;;;;;;22.00;16.05;;;21.40;99.90;;;;;;5032148;28;20341;-66
2023/08/12 09:37:15;;;;;;;23.17;17.55;;;21.30;99.90;;;;;;5032850;28;20058;-65
2023/08/12 09:39:42;;;;;;;21.80;17.65;;;21.30;99.90;;;;;;5031478;28;20383;-65
2023/08/12 09:42:08;;;;;;;25.75;18.52;;;21.30;99.90;;;;;;5033444;28;20102;-65
2023/08/12 09:44:38;;;;;;;21.95;19.30;;;21.30;99.90;;;;;;5050017;28;20307;-66
2023/08/12 09:47:05;;;;;;;23.40;19.25;;;21.20;99.90;;;;;;5050784;28;20044;-66
2023/08/12 09:49:31;;;;;;;22.98;19.15;;;21.20;99.90;;;;;;5050333;28;20810;-67
2023/08/12 09:51:57;;;;;;;24.33;20.00;;;21.20;99.90;;;;;;5050484;28;20048;-66
2023/08/12 09:54:26;;;;;;;27.60;22.33;;;21.30;99.90;;;;;;5051489;28;20543;-67
2023/08/12 09:56:57;;;;;;;29.00;21.73;;;21.30;99.90;;;;;;5051047;28;20044;-66
2023/08/12 09:59:24;;;;;;;27.92;21.63;;;21.20;99.90;;;;;;5051702;28;20608;-66
2023/08/12 10:01:53;;;;;;;27.83;21.92;;;21.10;99.90;;;;;;5051582;28;20056;-66
2023/08/12 10:04:22;;;;;;;30.55;24.13;;;21.10;99.90;;;;;;5035401;28;20044;-67
2023/08/12 10:06:49;;;;;;;34.50;24.02;;;20.90;99.90;;;;;;5052578;28;20627;-66
2023/08/12 10:09:19;;;;;;;31.75;24.27;;;20.90;99.90;;;;;;5052601;28;20183;-66
2023/08/12 10:11:46;;;;;;;30.17;23.85;;;20.80;99.90;;;;;;5052837;28;20040;-65
2023/08/12 10:14:13;;;;;;;32.25;23.70;;;20.70;99.90;;;;;;5051757;28;20627;-65
2023/08/12 10:16:39;;;;;;;31.90;24.92;;;20.70;99.90;;;;;;5051268;28;20032;-66
2023/08/12 10:19:06;;;;;;;34.33;27.13;;;20.60;99.90;;;;;;5048893;28;20202;-65
2023/08/12 10:21:33;;;;;;;33.30;27.75;;;20.60;99.90;;;;;;5031520;28;20086;-67
2023/08/12 10:23:59;;;;;;;35.80;27.27;;;20.70;99.90;;;;;;5032126;28;20062;-66
2023/08/12 10:26:25;;;;;;;36.65;27.70;;;20.70;99.90;;;;;;5052017;28;20040;-72
2023/08/12 10:28:51;;;;;;;31.35;25.55;;;20.60;99.90;;;;;;5036645;28;20052;-71
2023/08/12 10:31:18;;;;;;;32.58;25.70;;;20.40;99.90;;;;;;5051889;28;20051;-69
2023/08/12 10:33:44;;;;;;;36.97;26.98;;;20.30;99.90;;;;;;5052591;28;20110;-69
2023/08/12 10:36:11;;;;;;;35.67;27.70;;;20.70;99.90;;;;;;5052218;28;20045;-69
2023/08/12 10:38:37;;;;;;;33.72;26.88;;;20.40;99.90;;;;;;5052292;28;20040;-69
2023/08/12 10:41:20;;;;;;;31.27;24.33;;;20.60;99.90;;;;;;5052470;28;20440;-69
2023/08/12 10:43:59;;;;;;;24.40;21.45;;;20.60;99.90;;;;;;5030806;28;20051;-69
2023/08/12 10:46:32;;;;;;;25.00;21.77;;;20.40;99.90;;;;;;5032023;28;20045;-68
2023/08/12 10:49:04;;;;;;;25.42;21.58;;;20.20;99.90;;;;;;5037282;28;20055;-69
2023/08/12 10:51:41;;;;;;;25.75;22.67;;;20.50;99.90;;;;;;5033365;28;20131;-68
2023/08/12 10:54:17;;;;;;;25.77;22.75;;;20.10;99.90;;;;;;5036986;28;20224;-68
2023/08/12 10:57:02;;;;;;;24.60;21.42;;;20.50;99.90;;;;;;5038289;28;20129;-69
2023/08/12 10:59:49;;;;;;;23.00;20.35;;;20.10;99.90;;;;;;5035049;28;20252;-68
2023/08/12 11:02:34;;;;;;;24.17;21.67;;;20.10;99.90;;;;;;5040890;28;20123;-68
2023/08/12 11:05:06;;;;;;;24.38;21.65;;;20.20;99.90;;;;;;5037828;28;20044;-69
2023/08/12 11:07:37;;;;;;;23.45;21.00;;;20.40;99.90;;;;;;5037036;28;20623;-68
2023/08/12 11:10:14;;;;;;;22.10;19.80;;;21.00;99.90;;;;;;5037517;28;20518;-68
2023/08/12 11:12:45;;;;;;;19.60;17.67;;;20.80;99.90;;;;;;5035327;28;20438;-68
2023/08/12 11:15:12;;;;;;;13.43;12.05;;;21.20;99.90;;;;;;5038570;28;21653;-68
2023/08/12 11:17:40;;;;;;;13.30;12.10;;;20.90;99.90;;;;;;5025475;28;20550;-69
2023/08/12 11:20:11;;;;;;;14.45;12.68;;;20.60;99.90;;;;;;5032051;28;20352;-69
2023/08/12 11:22:41;;;;;;;13.43;12.13;;;20.80;99.90;;;;;;5032621;28;20147;-68
2023/08/12 11:25:10;;;;;;;13.32;11.93;;;20.80;99.90;;;;;;5031826;28;20177;-69
2023/08/12 11:27:40;;;;;;;9.57;8.63;;;20.80;99.90;;;;;;5032713;28;20044;-69
2023/08/12 11:30:07;;;;;;;6.82;6.22;;;21.60;99.90;;;;;;5034815;28;20844;-69
2023/08/12 11:32:32;;;;;;;6.75;6.05;;;21.70;99.90;;;;;;5036137;28;20691;-68
2023/08/12 11:34:59;;;;;;;5.00;4.55;;;21.50;99.90;;;;;;5034350;28;20052;-69
2023/08/12 11:37:25;;;;;;;5.53;4.38;;;21.00;99.90;;;;;;4985586;28;20105;-69
2023/08/12 11:39:54;;;;;;;5.60;3.83;;;21.10;99.90;;;;;;5029964;28;20049;-69
2023/08/12 11:42:24;;;;;;;6.00;5.10;;;21.40;99.90;;;;;;5032018;28;20044;-69
2023/08/12 11:44:53;;;;;;;5.03;4.60;;;21.10;99.90;;;;;;5033934;28;20048;-71
2023/08/12 11:47:23;;;;;;;5.35;4.30;;;21.60;99.90;;;;;;5051450;28;20521;-70
2023/08/12 11:49:49;;;;;;;5.25;4.82;;;21.60;99.90;;;;;;5020406;28;20102;-70
2023/08/12 11:52:15;;;;;;;4.88;4.43;;;21.10;99.90;;;;;;5012026;28;20119;-70
2023/08/12 11:54:41;;;;;;;7.15;5.97;;;21.60;99.90;;;;;;5034211;28;20044;-71
2023/08/12 11:57:07;;;;;;;5.97;5.43;;;21.40;99.90;;;;;;5039103;28;20090;-70
2023/08/12 11:59:32;;;;;;;5.50;4.43;;;21.30;99.90;;;;;;5016502;28;20052;-69
2023/08/12 12:02:02;;;;;;;4.40;4.00;;;21.10;99.90;;;;;;5035018;28;20106;-70
2023/08/12 12:04:27;;;;;;;6.07;4.70;;;21.20;99.90;;;;;;5017305;28;20044;-70
2023/08/12 12:06:53;;;;;;;5.07;4.20;;;21.40;99.90;;;;;;5025222;28;20051;-69
2023/08/12 12:09:20;;;;;;;2.58;2.25;;;21.50;99.90;;;;;;5015184;28;20109;-70
2023/08/12 12:11:46;;;;;;;3.15;1.98;;;21.90;99.90;;;;;;5031865;28;20513;-70
2023/08/12 12:14:12;;;;;;;3.30;1.48;;;21.60;99.90;;;;;;5015846;28;20045;-70
2023/08/12 12:16:46;;;;;;;2.55;1.50;;;21.60;99.90;;;;;;5014942;28;20375;-70
2023/08/12 12:19:20;;;;;;;3.38;1.40;;;21.40;99.90;;;;;;5051132;28;20048;-70
2023/08/12 12:21:52;;;;;;;2.90;1.48;;;21.90;99.90;;;;;;5044849;28;20057;-71
2023/08/12 12:24:19;;;;;;;1.67;0.80;;;21.80;99.90;;;;;;5041673;28;20144;-69
2023/08/12 12:26:46;;;;;;;1.80;0.88;;;21.70;99.90;;;;;;5016805;28;20041;-70
2023/08/12 12:29:13;;;;;;;1.60;0.80;;;21.50;99.90;;;;;;5032844;28;20178;-69